Create Custom Reports and Graphics: Custom Report

Alpine-Roundhouse Btm 6950'

Current Conditions

10/27/20 7:30 PM (-07:00)
Updated Every 15 Minutes
Temp 48.3 °F   11.5
RH 28 %   11
Wet Bulb 35.3 °F   6.9
Dew Pt 16.5 °F   2.5
Wind Spd 2.8 mph
Wind Dir W | 266 °
Wind Gust 9.3 mph   2.1
WindChill 47.7 °F   10.9
Barometric Pressure 30.28 inHg   0.07
Daily Min Temp 30.0 °F   8.2
Daily Max Temp 54.4 °F   13.5
Latest Rain 0.00 In
Daily Rain 0.00 In
SnowDepth 2.7 in

Last 6 Hours

Alpine-Roundhouse Btm 6950'

15 Minute Data | America/Los_Angeles
as of 10/27/20 7:34 PM PDT
Date & Time Temp (°F) RH (%) Dew Pt (°F) Wet Bulb (°F) Wind Dir (°) Wind Spd (mph) Wind Gust (mph) WindChill (°F) Barometric Pressure (inHg) SnowDepth (in) Latest Rain (In) Daily Rain (In) Daily Min Temp (°F) Daily Max Temp (°F)
10/27/20 - 1930 48.3 28 16.5 35.3 W | 266 2.8 9.3 47.7 30.28 2.7 0.00 0.00 30.0 54.4
10/27/20 - 1915 49.2 28 17.4 36.0 WSW | 253 3.0 6.6 49.2 30.27 3.4 0.00 0.00 30.0 54.4
10/27/20 - 1900 48.3 29 17.6 35.5 W | 267 1.7 4.3 46.7 30.28 3.1 0.00 0.00 30.0 54.4
10/27/20 - 1845 49.1 26 16.1 35.6 WNW | 283 1.9 5.5 49.1 30.27 3.7 0.00 0.00 30.0 54.4
10/27/20 - 1830 49.8 27 17.4 36.2 WSW | 246 1.9 4.9 48.2 30.27 3.0 0.00 0.00 30.0 54.4
10/27/20 - 1815 49.6 27 17.2 36.1 NW | 306 3.0 7.3 49.6 30.25 4.6 0.00 0.00 30.0 54.4
10/27/20 - 1800 49.7 29 18.9 36.6 NNW | 332 3.0 12.1 49.7 30.26 3.4 0.00 0.00 30.0 54.4
10/27/20 - 1745 51.4 29 20.2 37.8 NNW | 333 2.8 7.4 51.4 30.26 2.6 0.00 0.00 30.0 54.4
10/27/20 - 1730 51.5 28 19.1 37.5 N | 349 3.4 7.7 51.5 30.26 2.6 0.00 0.00 30.0 54.4
10/27/20 - 1715 52.1 27 19.1 37.8 N | 351 4.3 10.7 52.1 30.25 3.9 0.00 0.00 30.0 54.4
10/27/20 - 1700 52.5 24 16.8 37.4 NNW | 345 2.9 14.3 52.5 30.26 1.0 0.00 0.00 30.0 54.4
10/27/20 - 1645 52.5 25 17.6 37.6 NW | 315 3.1 8.9 52.5 30.25 1.4 0.00 0.00 30.0 54.4
10/27/20 - 1630 52.5 24 16.9 37.5 N | 349 4.4 13.7 52.5 30.26 1.7 0.00 0.00 30.0 54.4
10/27/20 - 1615 53.4 25 18.2 38.2 NW | 315 2.8 7.6 53.4 30.24 1.8 0.00 0.00 30.0 54.4
10/27/20 - 1600 53.3 27 19.9 38.6 SW | 236 2.4 9.5 53.3 30.26 3.8 0.00 0.00 30.0 54.4
10/27/20 - 1545 53.6 28 21.7 39.3 NNW | 344 4.1 9.1 53.6 30.25 2.1 0.00 0.00 30.0 54.4
10/27/20 - 1530 54.2 27 21.2 39.4 N | 7 4.3 12.4 54.2 30.25 3.0 0.00 0.00 30.0 54.2
10/27/20 - 1515 53.5 30 22.9 39.5 N | 358 4.2 14.5 53.5 30.24 1.6 0.00 0.00 30.0 54.0
10/27/20 - 1500 53.7 30 23.3 39.7 N | 360 4.9 13.0 53.7 30.25 3.1 0.00 0.00 30.0 54.0
10/27/20 - 1445 53.7 31 23.4 39.8 N | 353 2.1 10.5 53.7 30.25 1.2 0.00 0.00 30.0 54.0
10/27/20 - 1430 52.9 34 25.7 40.1 NW | 319 3.3 11.8 52.9 30.23 3.2 0.00 0.00 30.0 53.1
10/27/20 - 1415 53.0 37 27.5 40.7 NNW | 344 3.1 15.5 53.0 30.23 2.4 0.00 0.00 30.0 53.0
10/27/20 - 1400 52.1 39 28.1 40.5 N | 354 4.0 9.3 52.1 30.24 1.6 0.00 0.00 30.0 52.5
10/27/20 - 1345 52.1 40 28.4 40.6 NNW | 343 4.3 11.7 50.0 30.25 1.8 0.00 0.00 30.0 52.1
Max 54.2 40 28.4 40.7 - 4.9 15.5 54.2 30.28 4.6 0.00 0.00 30.0 54.4
Avg 51.8 29 20.5 38.1 - 3.2 9.9 51.5 30.25 2.6 0.00 - - -
Min 48.3 24 16.1 35.3 - 1.7 4.3 46.7 30.23 1.0 0.00 0.00 30.0 52.1
Total - - - - - - - - - - 0.00 - - -

Last 30 Days

Alpine-Roundhouse Btm 6950'

Daily Data | America/Los_Angeles
as of 10/27/20 7:34 PM PDT
Date Daily Max Temp (°F) Time of Max Temp Daily Min Temp (°F) Time of Min Temp Wind Spd (mph) Daily Max Wind (mph) Max Wind Dir (°) Time of Max Wind Daily Rain (In) Seasonal Rainfall (In) SnowDepth (in) Max RH (%) Min RH (%) Wet Bulb (°F) WetB Hrs <28F (hrs) Min Press (inHg) Time of Min Press Bat Volt Min Day (V)
10/26/20 40.8 1550 21.8 0425 3.1 23.5 S | 181 0040 0.00 0.02 1.6 74 14 23.8 22.1 30.12 0001 13.2
10/25/20 46.0 0109 24.4 2335 4.1 26.9 NW | 326 2140 0.00 0.02 3.3 64 22 29.8 7.4 29.95 0725 13.2
10/24/20 57.8 1333 43.2 2247 3.8 17.6 SE | 140 1743 0.00 0.02 1.6 60 22 38.7 0.0 30.00 2145 13.2
10/23/20 61.7 1215 30.7 0810 1.6 17.2 WNW | 301 1555 0.00 0.02 1.5 90 23 37.8 0.0 30.07 0435 13.0
10/22/20 59.2 1519 35.2 2349 1.9 10.6 N | 9 1332 0.00 0.02 1.8 66 28 37.4 0.0 30.02 0450 13.1
10/21/20 67.2 1212 47.5 0518 3.0 26.1 SE | 135 1440 0.00 0.02 1.7 38 19 41.2 0.0 30.04 1525 13.1
10/20/20 70.1 1559 45.3 0759 2.2 11.1 SSE | 165 1012 0.00 0.02 1.4 52 12 41.8 0.0 30.10 1605 13.1
10/19/20 70.9 1533 47.9 0737 2.2 11.3 SE | 145 1039 0.00 0.02 1.5 46 19 42.6 0.0 30.18 1720 13.1
10/18/20 69.2 1317 51.6 2233 3.5 16.9 SSE | 168 1350 0.00 0.02 1.2 47 21 43.5 0.0 30.21 0420 13.1
10/17/20 73.2 1222 46.6 0728 2.4 16.1 S | 178 1506 0.00 0.02 2.0 34 13 41.6 0.0 30.20 1530 13.1
10/16/20 68.0 1513 42.8 0848 1.4 8.4 N | 351 1512 0.00 0.02 1.8 53 18 40.3 0.0 30.26 2350 13.2
10/15/20 65.3 1511 44.8 0659 1.6 11.4 SE | 143 1217 0.00 0.02 1.5 52 28 41.7 0.0 30.32 0430 13.1
10/14/20 72.3 1549 48.4 0708 2.0 10.4 N | 2 1531 0.00 0.02 1.2 49 21 44.3 0.0 30.30 0435 13.1
10/13/20 69.4 1321 50.8 0728 2.5 15.5 N | 349 1356 0.01 0.02 2.0 46 21 43.8 0.0 30.26 0355 13.1
10/12/20 67.6 1455 49.4 0021 2.7 12.6 S | 172 1420 0.01 0.01 1.3 51 17 42.4 0.0 30.25 1800 13.0
10/11/20 65.0 1615 40.3 0826 2.7 17.1 SSE | 152 0034 0.00 0.00 1.9 87 22 42.9 0.0 30.10 0005 13.2
10/10/20 54.4 1110 45.4 2325 5.4 26.6 SE | 145 1642 0.00 0.00 1.3 84 28 41.9 0.0 30.02 1525 13.2
10/9/20 66.8 1316 46.0 0742 2.4 13.0 SSE | 166 1418 0.00 0.00 1.3 46 18 40.3 0.0 30.08 1720 13.1
10/8/20 64.8 1121 49.7 2237 2.0 12.8 S | 172 1805 0.00 0.00 2.0 30 16 39.7 0.0 30.10 1655 13.1
10/7/20 71.2 1228 50.1 0648 2.5 16.0 SSE | 154 1453 0.00 0.00 2.5 33 8 41.2 0.0 30.12 1505 13.1
10/6/20 73.5 1238 50.1 0657 2.4 14.9 SSE | 153 1446 0.00 0.00 2.6 34 8 42.2 0.0 30.21 2215 13.1
10/5/20 74.5 1507 52.1 0714 2.4 12.4 SSE | 167 1615 0.00 0.00 1.8 32 10 42.6 0.0 30.26 0430 13.1
10/4/20 72.3 1216 52.3 0745 2.7 16.7 S | 180 1329 0.00 0.00 1.6 31 14 43.0 0.0 30.23 1515 13.1
10/3/20 77.1 1528 53.8 0723 2.4 13.4 SSW | 192 1827 0.00 0.00 1.2 36 11 44.1 0.0 30.21 1700 13.1
10/2/20 78.3 1251 54.9 0752 2.1 10.5 SW | 223 1331 0.00 0.00 1.8 30 8 44.3 0.0 30.25 1740 13.1
10/1/20 77.9 1545 53.7 0535 1.9 13.4 N | 1 1454 0.00 0.00 1.0 36 12 45.1 0.0 30.31 1930 13.1
9/30/20 74.4 1530 52.5 0705 2.0 11.0 S | 188 1435 0.00 17.81 1.4 45 22 46.5 0.0 30.34 1910 13.1
9/29/20 73.6 1315 49.8 0554 2.1 16.2 SSE | 152 1603 0.00 17.81 1.0 39 20 45.1 0.0 30.30 0400 13.2
9/28/20 67.7 1533 47.2 0334 2.2 14.0 N | 9 0049 0.01 17.81 1.7 50 20 42.5 0.0 30.28 1820 12.9
9/27/20 64.5 1526 43.7 0621 2.9 18.5 NNW | 346 1607 0.00 17.80 1.3 75 31 44.4 0.0 30.22 0350 13.1
Max 78.3 - 54.9 - 5.4 26.9 - - 0.01 - 3.3 90 31 46.5 22.1 30.34 - 13.2
Avg - - - - 2.5 - - - - - 1.7 - - 41.2 - - - -
Min 40.8 - 21.8 - 1.4 8.4 - - 0.00 - 1.0 30 8 23.8 0.0 29.95 - 12.9
Calm: 0.0%
Calm: 0.0%